Terminal Aerodrome Forecast
Issued by NWS

Home | Current Version | Previous Version | Text Only | Print | Product List | Glossary On
Versions: 1 2 3 4 5 6 7 8 9 10 11 12 13 14 15 16 17 18 19 20 21 22 23 24 25 26 27 28 29 30 31 32 33 34
131
FTAK31 PAFA 281738
TAFASC
TAF
PASC 281738Z 2818/2918 24006KT P6SM SCT100
     FM282000 30010KT P6SM -SHRA SCT010 BKN025 OVC050
      TEMPO 2820/2823 2SM -RA BR BKN010 OVC025
     FM290600 33008KT P6SM OVC010=

USA.gov is the U.S. government's official web portal to all federal, state and local government web resources and services.